sensor_id;sensor_type;location;lat;lon;timestamp;P1;durP1;ratioP1;P2;durP2;ratioP2
37455;SDS011;23316;50.718;7.328;2023-11-21T00:00:14;4.35;;;2.88;;
37455;SDS011;23316;50.718;7.328;2023-11-21T00:02:42;4.65;;;3.00;;
37455;SDS011;23316;50.718;7.328;2023-11-21T00:05:11;4.63;;;3.30;;
37455;SDS011;23316;50.718;7.328;2023-11-21T00:07:41;512.83;;;13.05;;
37455;SDS011;23316;50.718;7.328;2023-11-21T00:10:09;731.85;;;17.80;;
37455;SDS011;23316;50.718;7.328;2023-11-21T00:12:39;1184.32;;;30.40;;
37455;SDS011;23316;50.718;7.328;2023-11-21T00:15:08;967.63;;;23.88;;
37455;SDS011;23316;50.718;7.328;2023-11-21T00:17:37;858.53;;;21.65;;
37455;SDS011;23316;50.718;7.328;2023-11-21T00:20:05;3.88;;;2.95;;
37455;SDS011;23316;50.718;7.328;2023-11-21T00:22:33;7.60;;;3.10;;
37455;SDS011;23316;50.718;7.328;2023-11-21T00:25:02;45.53;;;4.78;;
37455;SDS011;23316;50.718;7.328;2023-11-21T00:27:30;7.35;;;4.22;;
37455;SDS011;23316;50.718;7.328;2023-11-21T00:29:57;5.82;;;3.75;;
37455;SDS011;23316;50.718;7.328;2023-11-21T00:32:24;5.18;;;3.78;;
37455;SDS011;23316;50.718;7.328;2023-11-21T00:34:52;6.72;;;3.58;;
37455;SDS011;23316;50.718;7.328;2023-11-21T00:37:20;5.05;;;3.55;;
37455;SDS011;23316;50.718;7.328;2023-11-21T00:39:47;6.95;;;3.63;;
37455;SDS011;23316;50.718;7.328;2023-11-21T00:42:15;8.50;;;4.35;;
37455;SDS011;23316;50.718;7.328;2023-11-21T00:44:43;8.25;;;3.80;;
37455;SDS011;23316;50.718;7.328;2023-11-21T00:47:10;106.57;;;5.90;;
37455;SDS011;23316;50.718;7.328;2023-11-21T00:49:37;36.63;;;4.72;;
37455;SDS011;23316;50.718;7.328;2023-11-21T00:52:05;8.68;;;4.25;;
37455;SDS011;23316;50.718;7.328;2023-11-21T00:54:32;17.23;;;4.20;;
37455;SDS011;23316;50.718;7.328;2023-11-21T00:57:00;7.72;;;4.28;;
37455;SDS011;23316;50.718;7.328;2023-11-21T00:59:28;330.95;;;10.48;;
37455;SDS011;23316;50.718;7.328;2023-11-21T01:01:56;56.72;;;4.72;;
37455;SDS011;23316;50.718;7.328;2023-11-21T01:04:25;70.10;;;4.90;;
37455;SDS011;23316;50.718;7.328;2023-11-21T01:06:53;224.68;;;7.93;;
37455;SDS011;23316;50.718;7.328;2023-11-21T01:09:20;137.23;;;6.03;;
37455;SDS011;23316;50.718;7.328;2023-11-21T01:11:48;172.00;;;7.03;;
37455;SDS011;23316;50.718;7.328;2023-11-21T01:14:15;107.07;;;5.70;;
37455;SDS011;23316;50.718;7.328;2023-11-21T01:16:44;42.08;;;4.28;;
37455;SDS011;23316;50.718;7.328;2023-11-21T01:19:11;154.43;;;6.95;;
37455;SDS011;23316;50.718;7.328;2023-11-21T01:21:39;351.88;;;8.95;;
37455;SDS011;23316;50.718;7.328;2023-11-21T01:24:06;490.13;;;11.98;;
37455;SDS011;23316;50.718;7.328;2023-11-21T01:26:34;504.80;;;13.70;;
37455;SDS011;23316;50.718;7.328;2023-11-21T01:29:01;20.77;;;4.88;;
37455;SDS011;23316;50.718;7.328;2023-11-21T01:31:30;6.38;;;4.22;;
37455;SDS011;23316;50.718;7.328;2023-11-21T01:33:58;33.58;;;4.53;;
37455;SDS011;23316;50.718;7.328;2023-11-21T01:36:29;43.55;;;4.70;;
37455;SDS011;23316;50.718;7.328;2023-11-21T01:38:58;298.33;;;8.82;;
37455;SDS011;23316;50.718;7.328;2023-11-21T01:41:25;29.63;;;5.03;;
37455;SDS011;23316;50.718;7.328;2023-11-21T01:43:54;23.58;;;5.30;;
37455;SDS011;23316;50.718;7.328;2023-11-21T01:46:21;80.72;;;6.72;;
37455;SDS011;23316;50.718;7.328;2023-11-21T01:48:49;22.23;;;5.60;;
37455;SDS011;23316;50.718;7.328;2023-11-21T01:51:20;54.13;;;5.75;;
37455;SDS011;23316;50.718;7.328;2023-11-21T01:53:47;9.93;;;5.68;;
37455;SDS011;23316;50.718;7.328;2023-11-21T01:56:14;27.45;;;6.03;;
37455;SDS011;23316;50.718;7.328;2023-11-21T01:58:42;68.32;;;6.40;;
37455;SDS011;23316;50.718;7.328;2023-11-21T02:01:12;12.30;;;6.20;;
37455;SDS011;23316;50.718;7.328;2023-11-21T02:03:39;9.07;;;5.65;;
37455;SDS011;23316;50.718;7.328;2023-11-21T02:06:07;8.68;;;5.32;;
37455;SDS011;23316;50.718;7.328;2023-11-21T02:08:36;10.07;;;5.45;;
37455;SDS011;23316;50.718;7.328;2023-11-21T02:11:03;9.63;;;5.50;;
37455;SDS011;23316;50.718;7.328;2023-11-21T02:13:31;12.43;;;5.95;;
37455;SDS011;23316;50.718;7.328;2023-11-21T02:15:59;7.20;;;5.38;;
37455;SDS011;23316;50.718;7.328;2023-11-21T02:18:26;11.50;;;5.18;;
37455;SDS011;23316;50.718;7.328;2023-11-21T02:20:55;8.23;;;4.90;;
37455;SDS011;23316;50.718;7.328;2023-11-21T02:23:24;13.05;;;5.38;;
37455;SDS011;23316;50.718;7.328;2023-11-21T02:25:54;10.27;;;5.55;;
37455;SDS011;23316;50.718;7.328;2023-11-21T02:28:21;9.32;;;5.13;;
37455;SDS011;23316;50.718;7.328;2023-11-21T02:30:51;18.67;;;5.70;;
37455;SDS011;23316;50.718;7.328;2023-11-21T02:33:21;131.77;;;8.60;;
37455;SDS011;23316;50.718;7.328;2023-11-21T02:35:48;41.83;;;6.13;;
37455;SDS011;23316;50.718;7.328;2023-11-21T02:38:16;10.82;;;6.30;;
37455;SDS011;23316;50.718;7.328;2023-11-21T02:40:45;41.58;;;6.80;;
37455;SDS011;23316;50.718;7.328;2023-11-21T02:43:12;57.80;;;6.82;;
37455;SDS011;23316;50.718;7.328;2023-11-21T02:45:39;64.35;;;8.55;;
37455;SDS011;23316;50.718;7.328;2023-11-21T02:48:07;71.07;;;8.05;;
37455;SDS011;23316;50.718;7.328;2023-11-21T02:50:34;20.67;;;6.72;;
37455;SDS011;23316;50.718;7.328;2023-11-21T02:53:02;15.90;;;6.65;;
37455;SDS011;23316;50.718;7.328;2023-11-21T02:55:31;34.28;;;6.80;;
37455;SDS011;23316;50.718;7.328;2023-11-21T02:58:02;15.95;;;6.20;;
37455;SDS011;23316;50.718;7.328;2023-11-21T03:00:30;135.45;;;8.45;;
37455;SDS011;23316;50.718;7.328;2023-11-21T03:02:57;19.40;;;6.38;;
37455;SDS011;23316;50.718;7.328;2023-11-21T03:05:24;16.30;;;5.88;;
37455;SDS011;23316;50.718;7.328;2023-11-21T03:07:51;50.40;;;7.13;;
37455;SDS011;23316;50.718;7.328;2023-11-21T03:10:19;48.80;;;6.47;;
37455;SDS011;23316;50.718;7.328;2023-11-21T03:12:46;19.15;;;6.38;;
37455;SDS011;23316;50.718;7.328;2023-11-21T03:15:15;30.65;;;6.35;;
37455;SDS011;23316;50.718;7.328;2023-11-21T03:17:42;65.22;;;7.65;;
37455;SDS011;23316;50.718;7.328;2023-11-21T03:20:09;32.50;;;6.57;;
37455;SDS011;23316;50.718;7.328;2023-11-21T03:22:39;50.70;;;7.20;;
37455;SDS011;23316;50.718;7.328;2023-11-21T03:25:07;19.48;;;6.20;;
37455;SDS011;23316;50.718;7.328;2023-11-21T03:27:36;12.35;;;5.90;;
37455;SDS011;23316;50.718;7.328;2023-11-21T03:30:05;11.32;;;6.55;;
37455;SDS011;23316;50.718;7.328;2023-11-21T03:32:36;7.28;;;5.45;;
37455;SDS011;23316;50.718;7.328;2023-11-21T03:35:04;16.52;;;6.20;;
37455;SDS011;23316;50.718;7.328;2023-11-21T03:37:32;15.15;;;6.22;;
37455;SDS011;23316;50.718;7.328;2023-11-21T03:39:59;15.18;;;5.30;;
37455;SDS011;23316;50.718;7.328;2023-11-21T03:42:29;10.18;;;5.95;;
37455;SDS011;23316;50.718;7.328;2023-11-21T03:44:56;10.35;;;5.70;;
37455;SDS011;23316;50.718;7.328;2023-11-21T03:47:24;9.13;;;5.38;;
37455;SDS011;23316;50.718;7.328;2023-11-21T03:49:53;14.43;;;5.82;;
37455;SDS011;23316;50.718;7.328;2023-11-21T03:52:21;15.48;;;5.65;;
37455;SDS011;23316;50.718;7.328;2023-11-21T03:54:48;9.50;;;5.55;;
37455;SDS011;23316;50.718;7.328;2023-11-21T03:57:15;8.57;;;5.38;;
37455;SDS011;23316;50.718;7.328;2023-11-21T03:59:43;8.90;;;5.28;;
37455;SDS011;23316;50.718;7.328;2023-11-21T04:02:10;13.73;;;5.97;;
37455;SDS011;23316;50.718;7.328;2023-11-21T04:04:37;16.05;;;5.80;;
37455;SDS011;23316;50.718;7.328;2023-11-21T04:07:06;10.40;;;6.35;;
37455;SDS011;23316;50.718;7.328;2023-11-21T04:09:33;8.27;;;5.88;;
37455;SDS011;23316;50.718;7.328;2023-11-21T04:12:01;12.45;;;6.28;;
37455;SDS011;23316;50.718;7.328;2023-11-21T04:14:29;10.30;;;5.65;;
37455;SDS011;23316;50.718;7.328;2023-11-21T04:16:57;10.05;;;5.85;;
37455;SDS011;23316;50.718;7.328;2023-11-21T04:19:24;13.70;;;6.50;;
37455;SDS011;23316;50.718;7.328;2023-11-21T04:21:52;10.02;;;6.03;;
37455;SDS011;23316;50.718;7.328;2023-11-21T04:24:20;12.98;;;7.50;;
37455;SDS011;23316;50.718;7.328;2023-11-21T04:26:47;13.23;;;7.13;;
37455;SDS011;23316;50.718;7.328;2023-11-21T04:29:15;12.65;;;6.90;;
37455;SDS011;23316;50.718;7.328;2023-11-21T04:31:42;11.00;;;7.20;;
37455;SDS011;23316;50.718;7.328;2023-11-21T04:34:09;16.13;;;8.20;;
37455;SDS011;23316;50.718;7.328;2023-11-21T04:36:36;18.17;;;8.68;;
37455;SDS011;23316;50.718;7.328;2023-11-21T04:39:04;19.75;;;10.38;;
37455;SDS011;23316;50.718;7.328;2023-11-21T04:41:33;17.67;;;9.15;;
37455;SDS011;23316;50.718;7.328;2023-11-21T04:44:02;14.00;;;9.32;;
37455;SDS011;23316;50.718;7.328;2023-11-21T04:46:30;14.77;;;9.50;;
37455;SDS011;23316;50.718;7.328;2023-11-21T04:48:57;20.83;;;10.50;;
37455;SDS011;23316;50.718;7.328;2023-11-21T04:51:25;17.90;;;11.13;;
37455;SDS011;23316;50.718;7.328;2023-11-21T04:53:52;24.92;;;11.30;;
37455;SDS011;23316;50.718;7.328;2023-11-21T04:56:20;23.00;;;13.25;;
37455;SDS011;23316;50.718;7.328;2023-11-21T04:58:48;23.27;;;12.23;;
37455;SDS011;23316;50.718;7.328;2023-11-21T05:01:15;23.67;;;12.57;;
37455;SDS011;23316;50.718;7.328;2023-11-21T05:03:43;18.58;;;12.13;;
37455;SDS011;23316;50.718;7.328;2023-11-21T05:06:12;23.77;;;13.07;;
37455;SDS011;23316;50.718;7.328;2023-11-21T05:08:39;25.15;;;14.05;;
37455;SDS011;23316;50.718;7.328;2023-11-21T05:11:08;30.42;;;14.80;;
37455;SDS011;23316;50.718;7.328;2023-11-21T05:13:36;28.00;;;14.30;;
37455;SDS011;23316;50.718;7.328;2023-11-21T05:16:06;30.40;;;15.65;;
37455;SDS011;23316;50.718;7.328;2023-11-21T05:18:33;32.03;;;16.20;;
37455;SDS011;23316;50.718;7.328;2023-11-21T05:21:01;33.72;;;15.35;;
37455;SDS011;23316;50.718;7.328;2023-11-21T05:23:29;29.08;;;15.23;;
37455;SDS011;23316;50.718;7.328;2023-11-21T05:25:56;31.13;;;15.52;;
37455;SDS011;23316;50.718;7.328;2023-11-21T05:28:23;29.70;;;15.38;;
37455;SDS011;23316;50.718;7.328;2023-11-21T05:30:51;36.72;;;16.23;;
37455;SDS011;23316;50.718;7.328;2023-11-21T05:33:20;32.60;;;15.80;;
37455;SDS011;23316;50.718;7.328;2023-11-21T05:35:47;24.88;;;14.82;;
37455;SDS011;23316;50.718;7.328;2023-11-21T05:38:14;32.78;;;17.63;;
37455;SDS011;23316;50.718;7.328;2023-11-21T05:40:41;35.67;;;17.70;;
37455;SDS011;23316;50.718;7.328;2023-11-21T05:43:09;38.17;;;18.08;;
37455;SDS011;23316;50.718;7.328;2023-11-21T05:45:37;34.33;;;18.73;;
37455;SDS011;23316;50.718;7.328;2023-11-21T05:48:04;35.28;;;18.55;;
37455;SDS011;23316;50.718;7.328;2023-11-21T05:50:33;35.05;;;19.02;;
37455;SDS011;23316;50.718;7.328;2023-11-21T05:53:00;36.15;;;18.23;;
37455;SDS011;23316;50.718;7.328;2023-11-21T05:55:28;32.22;;;18.10;;
37455;SDS011;23316;50.718;7.328;2023-11-21T05:57:55;34.65;;;17.90;;
37455;SDS011;23316;50.718;7.328;2023-11-21T06:00:22;36.88;;;18.65;;
37455;SDS011;23316;50.718;7.328;2023-11-21T06:02:51;32.22;;;17.80;;
37455;SDS011;23316;50.718;7.328;2023-11-21T06:05:19;40.20;;;18.15;;
37455;SDS011;23316;50.718;7.328;2023-11-21T06:07:50;37.60;;;19.65;;
37455;SDS011;23316;50.718;7.328;2023-11-21T06:10:19;36.50;;;19.48;;
37455;SDS011;23316;50.718;7.328;2023-11-21T06:12:47;33.80;;;17.73;;
37455;SDS011;23316;50.718;7.328;2023-11-21T06:15:14;33.50;;;17.98;;
37455;SDS011;23316;50.718;7.328;2023-11-21T06:17:44;38.33;;;21.35;;
37455;SDS011;23316;50.718;7.328;2023-11-21T06:20:15;39.50;;;21.67;;
37455;SDS011;23316;50.718;7.328;2023-11-21T06:22:44;40.92;;;22.50;;
37455;SDS011;23316;50.718;7.328;2023-11-21T06:25:13;43.97;;;21.48;;
37455;SDS011;23316;50.718;7.328;2023-11-21T06:27:41;35.95;;;20.02;;
37455;SDS011;23316;50.718;7.328;2023-11-21T06:30:10;38.38;;;21.40;;
37455;SDS011;23316;50.718;7.328;2023-11-21T06:32:39;42.95;;;21.65;;
37455;SDS011;23316;50.718;7.328;2023-11-21T06:35:07;38.58;;;20.73;;
37455;SDS011;23316;50.718;7.328;2023-11-21T06:37:35;43.08;;;20.33;;
37455;SDS011;23316;50.718;7.328;2023-11-21T06:40:03;41.53;;;21.80;;
37455;SDS011;23316;50.718;7.328;2023-11-21T06:42:33;46.22;;;22.80;;
37455;SDS011;23316;50.718;7.328;2023-11-21T06:45:00;49.72;;;26.20;;
37455;SDS011;23316;50.718;7.328;2023-11-21T06:47:29;41.20;;;22.40;;
37455;SDS011;23316;50.718;7.328;2023-11-21T06:49:56;42.92;;;22.08;;
37455;SDS011;23316;50.718;7.328;2023-11-21T06:52:23;43.70;;;24.02;;
37455;SDS011;23316;50.718;7.328;2023-11-21T06:54:51;48.72;;;24.60;;
37455;SDS011;23316;50.718;7.328;2023-11-21T06:57:18;57.25;;;25.20;;
37455;SDS011;23316;50.718;7.328;2023-11-21T06:59:47;55.80;;;25.98;;
37455;SDS011;23316;50.718;7.328;2023-11-21T07:02:14;56.10;;;26.83;;
37455;SDS011;23316;50.718;7.328;2023-11-21T07:04:43;46.08;;;22.63;;
37455;SDS011;23316;50.718;7.328;2023-11-21T07:07:11;56.15;;;26.38;;
37455;SDS011;23316;50.718;7.328;2023-11-21T07:09:39;56.30;;;26.80;;
37455;SDS011;23316;50.718;7.328;2023-11-21T07:12:07;53.47;;;24.88;;
37455;SDS011;23316;50.718;7.328;2023-11-21T07:14:34;56.95;;;26.75;;
37455;SDS011;23316;50.718;7.328;2023-11-21T07:17:04;48.75;;;25.15;;
37455;SDS011;23316;50.718;7.328;2023-11-21T07:19:32;52.67;;;26.73;;
37455;SDS011;23316;50.718;7.328;2023-11-21T07:21:59;50.25;;;25.58;;
37455;SDS011;23316;50.718;7.328;2023-11-21T07:24:27;56.47;;;25.20;;
37455;SDS011;23316;50.718;7.328;2023-11-21T07:26:54;54.65;;;25.55;;
37455;SDS011;23316;50.718;7.328;2023-11-21T07:29:23;55.83;;;26.13;;
37455;SDS011;23316;50.718;7.328;2023-11-21T07:31:51;50.47;;;24.70;;
37455;SDS011;23316;50.718;7.328;2023-11-21T07:34:20;52.08;;;26.20;;
37455;SDS011;23316;50.718;7.328;2023-11-21T07:36:47;46.45;;;24.52;;
37455;SDS011;23316;50.718;7.328;2023-11-21T07:39:14;47.58;;;24.90;;
37455;SDS011;23316;50.718;7.328;2023-11-21T07:41:42;55.78;;;24.15;;
37455;SDS011;23316;50.718;7.328;2023-11-21T07:44:14;52.83;;;24.77;;
37455;SDS011;23316;50.718;7.328;2023-11-21T07:46:42;46.65;;;24.35;;
37455;SDS011;23316;50.718;7.328;2023-11-21T07:49:10;44.67;;;23.83;;
37455;SDS011;23316;50.718;7.328;2023-11-21T07:51:38;43.85;;;23.73;;
37455;SDS011;23316;50.718;7.328;2023-11-21T07:54:06;47.03;;;24.42;;
37455;SDS011;23316;50.718;7.328;2023-11-21T07:56:33;46.13;;;24.08;;
37455;SDS011;23316;50.718;7.328;2023-11-21T07:59:00;43.97;;;23.20;;
37455;SDS011;23316;50.718;7.328;2023-11-21T08:01:28;53.47;;;24.95;;
37455;SDS011;23316;50.718;7.328;2023-11-21T08:03:55;45.35;;;23.17;;
37455;SDS011;23316;50.718;7.328;2023-11-21T08:06:27;50.17;;;24.55;;
37455;SDS011;23316;50.718;7.328;2023-11-21T08:08:55;49.85;;;24.95;;
37455;SDS011;23316;50.718;7.328;2023-11-21T08:11:23;42.78;;;24.20;;
37455;SDS011;23316;50.718;7.328;2023-11-21T08:13:51;50.50;;;23.80;;
37455;SDS011;23316;50.718;7.328;2023-11-21T08:16:20;47.97;;;23.73;;
37455;SDS011;23316;50.718;7.328;2023-11-21T08:18:49;51.67;;;23.15;;
37455;SDS011;23316;50.718;7.328;2023-11-21T08:21:17;47.20;;;24.67;;
37455;SDS011;23316;50.718;7.328;2023-11-21T08:23:44;53.63;;;26.65;;
37455;SDS011;23316;50.718;7.328;2023-11-21T08:26:15;52.22;;;27.08;;
37455;SDS011;23316;50.718;7.328;2023-11-21T08:28:43;52.95;;;27.65;;
37455;SDS011;23316;50.718;7.328;2023-11-21T08:31:11;52.88;;;26.05;;
37455;SDS011;23316;50.718;7.328;2023-11-21T08:33:38;51.70;;;25.52;;
37455;SDS011;23316;50.718;7.328;2023-11-21T08:36:06;45.30;;;26.08;;
37455;SDS011;23316;50.718;7.328;2023-11-21T08:38:36;66.60;;;28.75;;
37455;SDS011;23316;50.718;7.328;2023-11-21T08:41:04;54.47;;;27.48;;
37455;SDS011;23316;50.718;7.328;2023-11-21T08:43:35;54.83;;;27.77;;
37455;SDS011;23316;50.718;7.328;2023-11-21T08:46:05;53.42;;;26.80;;
37455;SDS011;23316;50.718;7.328;2023-11-21T08:48:35;59.15;;;29.00;;
37455;SDS011;23316;50.718;7.328;2023-11-21T08:51:03;53.08;;;30.05;;
37455;SDS011;23316;50.718;7.328;2023-11-21T08:53:32;60.58;;;30.60;;
37455;SDS011;23316;50.718;7.328;2023-11-21T08:55:59;67.47;;;31.13;;
37455;SDS011;23316;50.718;7.328;2023-11-21T08:58:26;63.58;;;30.70;;
37455;SDS011;23316;50.718;7.328;2023-11-21T09:00:55;58.75;;;30.00;;
37455;SDS011;23316;50.718;7.328;2023-11-21T09:03:22;64.57;;;29.52;;
37455;SDS011;23316;50.718;7.328;2023-11-21T09:05:50;67.05;;;31.92;;
37455;SDS011;23316;50.718;7.328;2023-11-21T09:08:17;56.55;;;30.17;;
37455;SDS011;23316;50.718;7.328;2023-11-21T09:10:44;58.50;;;30.58;;
37455;SDS011;23316;50.718;7.328;2023-11-21T09:13:12;57.60;;;30.33;;
37455;SDS011;23316;50.718;7.328;2023-11-21T09:15:42;59.55;;;30.95;;
37455;SDS011;23316;50.718;7.328;2023-11-21T09:18:13;54.28;;;30.50;;
37455;SDS011;23316;50.718;7.328;2023-11-21T09:20:41;54.92;;;29.23;;
37455;SDS011;23316;50.718;7.328;2023-11-21T09:23:09;62.08;;;30.35;;
37455;SDS011;23316;50.718;7.328;2023-11-21T09:25:36;51.55;;;28.02;;
37455;SDS011;23316;50.718;7.328;2023-11-21T09:28:04;57.75;;;28.83;;
37455;SDS011;23316;50.718;7.328;2023-11-21T09:30:33;54.67;;;27.70;;
37455;SDS011;23316;50.718;7.328;2023-11-21T09:33:01;57.67;;;27.05;;
37455;SDS011;23316;50.718;7.328;2023-11-21T09:35:32;46.55;;;26.13;;
37455;SDS011;23316;50.718;7.328;2023-11-21T09:37:59;63.67;;;27.25;;
37455;SDS011;23316;50.718;7.328;2023-11-21T09:40:31;61.05;;;27.73;;
37455;SDS011;23316;50.718;7.328;2023-11-21T09:42:58;52.72;;;27.92;;
37455;SDS011;23316;50.718;7.328;2023-11-21T09:45:26;52.10;;;27.67;;
37455;SDS011;23316;50.718;7.328;2023-11-21T09:47:56;47.83;;;25.67;;
37455;SDS011;23316;50.718;7.328;2023-11-21T09:50:25;54.75;;;27.83;;
37455;SDS011;23316;50.718;7.328;2023-11-21T09:53:00;55.67;;;27.38;;
37455;SDS011;23316;50.718;7.328;2023-11-21T09:55:37;51.95;;;27.10;;
37455;SDS011;23316;50.718;7.328;2023-11-21T09:58:06;58.00;;;29.95;;
37455;SDS011;23316;50.718;7.328;2023-11-21T10:00:38;65.43;;;28.60;;
37455;SDS011;23316;50.718;7.328;2023-11-21T10:03:07;58.72;;;31.33;;
37455;SDS011;23316;50.718;7.328;2023-11-21T10:05:35;55.38;;;27.95;;
37455;SDS011;23316;50.718;7.328;2023-11-21T10:08:06;53.33;;;27.90;;
37455;SDS011;23316;50.718;7.328;2023-11-21T10:10:35;59.75;;;27.52;;
37455;SDS011;23316;50.718;7.328;2023-11-21T10:13:04;56.00;;;28.30;;
37455;SDS011;23316;50.718;7.328;2023-11-21T10:15:33;56.25;;;27.58;;
37455;SDS011;23316;50.718;7.328;2023-11-21T10:18:02;57.35;;;28.08;;
37455;SDS011;23316;50.718;7.328;2023-11-21T10:20:32;61.50;;;28.45;;
37455;SDS011;23316;50.718;7.328;2023-11-21T10:23:00;51.92;;;30.05;;
37455;SDS011;23316;50.718;7.328;2023-11-21T10:25:30;61.38;;;30.17;;
37455;SDS011;23316;50.718;7.328;2023-11-21T10:27:58;53.15;;;27.77;;
37455;SDS011;23316;50.718;7.328;2023-11-21T10:30:27;51.60;;;27.25;;
37455;SDS011;23316;50.718;7.328;2023-11-21T10:32:58;59.42;;;28.02;;
37455;SDS011;23316;50.718;7.328;2023-11-21T10:35:38;51.35;;;27.20;;
37455;SDS011;23316;50.718;7.328;2023-11-21T10:38:06;53.67;;;30.25;;
37455;SDS011;23316;50.718;7.328;2023-11-21T10:40:38;51.45;;;29.25;;
37455;SDS011;23316;50.718;7.328;2023-11-21T10:43:07;58.00;;;29.25;;
37455;SDS011;23316;50.718;7.328;2023-11-21T10:45:36;53.75;;;28.63;;
37455;SDS011;23316;50.718;7.328;2023-11-21T10:48:07;50.20;;;26.33;;
37455;SDS011;23316;50.718;7.328;2023-11-21T10:50:36;58.45;;;29.95;;
37455;SDS011;23316;50.718;7.328;2023-11-21T10:53:04;53.95;;;29.10;;
37455;SDS011;23316;50.718;7.328;2023-11-21T10:55:32;59.85;;;29.40;;
37455;SDS011;23316;50.718;7.328;2023-11-21T10:58:02;54.08;;;29.75;;
37455;SDS011;23316;50.718;7.328;2023-11-21T11:00:31;55.92;;;28.80;;
37455;SDS011;23316;50.718;7.328;2023-11-21T11:03:00;52.50;;;28.60;;
37455;SDS011;23316;50.718;7.328;2023-11-21T11:05:27;55.38;;;28.42;;
37455;SDS011;23316;50.718;7.328;2023-11-21T11:07:58;51.35;;;28.27;;
37455;SDS011;23316;50.718;7.328;2023-11-21T11:10:28;51.97;;;29.42;;
37455;SDS011;23316;50.718;7.328;2023-11-21T11:12:56;52.17;;;29.08;;
37455;SDS011;23316;50.718;7.328;2023-11-21T11:15:26;56.55;;;29.10;;
37455;SDS011;23316;50.718;7.328;2023-11-21T11:17:54;49.38;;;28.02;;
37455;SDS011;23316;50.718;7.328;2023-11-21T11:20:23;61.55;;;30.52;;
37455;SDS011;23316;50.718;7.328;2023-11-21T11:22:59;60.90;;;29.25;;
37455;SDS011;23316;50.718;7.328;2023-11-21T11:25:47;51.50;;;27.88;;
37455;SDS011;23316;50.718;7.328;2023-11-21T11:28:27;45.47;;;24.98;;
37455;SDS011;23316;50.718;7.328;2023-11-21T11:31:08;49.13;;;27.38;;
37455;SDS011;23316;50.718;7.328;2023-11-21T11:33:51;54.92;;;26.13;;
37455;SDS011;23316;50.718;7.328;2023-11-21T11:36:25;48.80;;;25.50;;
37455;SDS011;23316;50.718;7.328;2023-11-21T11:38:56;50.75;;;26.23;;
37455;SDS011;23316;50.718;7.328;2023-11-21T11:41:24;53.20;;;26.77;;
37455;SDS011;23316;50.718;7.328;2023-11-21T11:43:53;50.25;;;26.33;;
37455;SDS011;23316;50.718;7.328;2023-11-21T11:46:22;54.05;;;26.70;;
37455;SDS011;23316;50.718;7.328;2023-11-21T11:49:08;54.67;;;26.05;;
37455;SDS011;23316;50.718;7.328;2023-11-21T11:51:35;57.95;;;27.40;;
37455;SDS011;23316;50.718;7.328;2023-11-21T11:54:03;47.13;;;25.80;;
37455;SDS011;23316;50.718;7.328;2023-11-21T11:56:32;46.85;;;25.33;;
37455;SDS011;23316;50.718;7.328;2023-11-21T11:59:03;52.97;;;25.73;;
37455;SDS011;23316;50.718;7.328;2023-11-21T12:01:34;43.72;;;24.48;;
37455;SDS011;23316;50.718;7.328;2023-11-21T12:07:01;53.42;;;27.23;;
37455;SDS011;23316;50.718;7.328;2023-11-21T12:09:29;58.15;;;26.45;;
37455;SDS011;23316;50.718;7.328;2023-11-21T12:11:58;53.10;;;27.58;;
37455;SDS011;23316;50.718;7.328;2023-11-21T12:14:25;60.95;;;27.67;;
37455;SDS011;23316;50.718;7.328;2023-11-21T12:16:55;51.80;;;27.00;;
37455;SDS011;23316;50.718;7.328;2023-11-21T12:19:22;54.03;;;27.23;;
37455;SDS011;23316;50.718;7.328;2023-11-21T12:21:50;56.60;;;29.60;;
37455;SDS011;23316;50.718;7.328;2023-11-21T12:24:18;56.88;;;29.02;;
37455;SDS011;23316;50.718;7.328;2023-11-21T12:26:45;58.58;;;27.83;;
37455;SDS011;23316;50.718;7.328;2023-11-21T12:29:13;53.72;;;29.05;;
37455;SDS011;23316;50.718;7.328;2023-11-21T12:31:42;53.92;;;28.63;;
37455;SDS011;23316;50.718;7.328;2023-11-21T12:34:11;48.47;;;27.35;;
37455;SDS011;23316;50.718;7.328;2023-11-21T12:36:38;55.67;;;26.17;;
37455;SDS011;23316;50.718;7.328;2023-11-21T12:39:06;51.83;;;24.55;;
37455;SDS011;23316;50.718;7.328;2023-11-21T12:41:34;50.75;;;22.23;;
37455;SDS011;23316;50.718;7.328;2023-11-21T12:44:02;48.80;;;23.52;;
37455;SDS011;23316;50.718;7.328;2023-11-21T12:46:29;51.45;;;23.45;;
37455;SDS011;23316;50.718;7.328;2023-11-21T12:48:58;47.05;;;23.98;;
37455;SDS011;23316;50.718;7.328;2023-11-21T12:51:28;46.90;;;23.45;;
37455;SDS011;23316;50.718;7.328;2023-11-21T12:53:55;49.00;;;23.65;;
37455;SDS011;23316;50.718;7.328;2023-11-21T12:56:24;49.10;;;24.63;;
37455;SDS011;23316;50.718;7.328;2023-11-21T12:58:53;52.53;;;23.35;;
37455;SDS011;23316;50.718;7.328;2023-11-21T13:01:25;44.72;;;25.02;;
37455;SDS011;23316;50.718;7.328;2023-11-21T13:03:54;53.15;;;25.40;;
37455;SDS011;23316;50.718;7.328;2023-11-21T13:06:21;57.95;;;25.48;;
37455;SDS011;23316;50.718;7.328;2023-11-21T13:08:52;42.50;;;23.30;;
37455;SDS011;23316;50.718;7.328;2023-11-21T13:11:20;50.25;;;25.48;;
37455;SDS011;23316;50.718;7.328;2023-11-21T13:13:51;48.83;;;24.98;;
37455;SDS011;23316;50.718;7.328;2023-11-21T13:16:19;55.72;;;24.73;;
37455;SDS011;23316;50.718;7.328;2023-11-21T13:18:47;41.28;;;22.15;;
37455;SDS011;23316;50.718;7.328;2023-11-21T13:21:14;54.28;;;25.27;;
37455;SDS011;23316;50.718;7.328;2023-11-21T13:23:43;51.85;;;23.58;;
37455;SDS011;23316;50.718;7.328;2023-11-21T13:26:13;54.63;;;25.05;;
37455;SDS011;23316;50.718;7.328;2023-11-21T13:28:40;58.40;;;26.48;;
37455;SDS011;23316;50.718;7.328;2023-11-21T13:31:11;45.00;;;23.90;;
37455;SDS011;23316;50.718;7.328;2023-11-21T13:33:51;49.53;;;25.27;;
37455;SDS011;23316;50.718;7.328;2023-11-21T13:36:21;48.30;;;23.70;;
37455;SDS011;23316;50.718;7.328;2023-11-21T13:38:49;48.15;;;25.25;;
37455;SDS011;23316;50.718;7.328;2023-11-21T13:41:19;60.47;;;27.08;;
37455;SDS011;23316;50.718;7.328;2023-11-21T13:43:53;64.63;;;26.63;;
37455;SDS011;23316;50.718;7.328;2023-11-21T13:46:29;49.15;;;25.83;;
37455;SDS011;23316;50.718;7.328;2023-11-21T13:49:02;51.43;;;27.23;;
37455;SDS011;23316;50.718;7.328;2023-11-21T13:51:35;50.08;;;25.38;;
37455;SDS011;23316;50.718;7.328;2023-11-21T13:54:07;46.33;;;24.90;;
37455;SDS011;23316;50.718;7.328;2023-11-21T13:56:36;48.55;;;24.80;;
37455;SDS011;23316;50.718;7.328;2023-11-21T13:59:05;49.47;;;24.65;;
37455;SDS011;23316;50.718;7.328;2023-11-21T14:01:42;51.83;;;25.10;;
37455;SDS011;23316;50.718;7.328;2023-11-21T14:04:20;53.05;;;24.25;;
37455;SDS011;23316;50.718;7.328;2023-11-21T14:07:01;53.45;;;25.08;;
37455;SDS011;23316;50.718;7.328;2023-11-21T14:09:44;52.40;;;25.15;;
37455;SDS011;23316;50.718;7.328;2023-11-21T14:12:13;50.28;;;25.35;;
37455;SDS011;23316;50.718;7.328;2023-11-21T14:14:41;47.75;;;24.05;;
37455;SDS011;23316;50.718;7.328;2023-11-21T14:17:09;48.03;;;23.75;;
37455;SDS011;23316;50.718;7.328;2023-11-21T14:19:36;52.95;;;24.75;;
37455;SDS011;23316;50.718;7.328;2023-11-21T14:22:08;52.67;;;25.30;;
37455;SDS011;23316;50.718;7.328;2023-11-21T14:24:36;50.28;;;24.00;;
37455;SDS011;23316;50.718;7.328;2023-11-21T14:27:09;46.80;;;22.85;;
37455;SDS011;23316;50.718;7.328;2023-11-21T14:29:38;51.22;;;25.67;;
37455;SDS011;23316;50.718;7.328;2023-11-21T14:32:09;48.10;;;24.77;;
37455;SDS011;23316;50.718;7.328;2023-11-21T14:34:36;52.13;;;25.65;;
37455;SDS011;23316;50.718;7.328;2023-11-21T14:37:04;51.53;;;24.67;;